createdAt,value
2017-08-30T00:02:21.337Z,43.23
2017-08-30T00:04:49.931Z,44.00
2017-08-30T00:07:19.636Z,36.70
2017-08-30T00:09:49.260Z,45.53
2017-08-30T00:12:18.347Z,53.00
2017-08-30T00:14:46.699Z,40.47
2017-08-30T00:17:16.096Z,44.87
2017-08-30T00:19:44.515Z,52.13
2017-08-30T00:22:12.867Z,41.23
2017-08-30T00:27:55.830Z,52.93
2017-08-30T00:30:26.839Z,39.80
2017-08-30T00:32:55.411Z,47.77
2017-08-30T00:35:23.784Z,46.60
2017-08-30T00:37:52.461Z,49.40
2017-08-30T00:40:21.335Z,42.43
2017-08-30T00:42:49.714Z,37.80
2017-08-30T00:45:18.655Z,42.90
2017-08-30T00:47:47.033Z,34.70
2017-08-30T00:50:16.435Z,43.17
2017-08-30T00:52:45.138Z,36.70
2017-08-30T00:55:14.287Z,46.20
2017-08-30T00:57:42.621Z,46.93
2017-08-30T01:00:12.232Z,57.30
2017-08-30T01:02:41.018Z,46.73
2017-08-30T01:05:09.386Z,37.00
2017-08-30T01:07:39.053Z,42.73
2017-08-30T01:10:09.569Z,39.60
2017-08-30T01:12:38.124Z,59.07
2017-08-30T01:15:07.246Z,36.60
2017-08-30T01:17:35.604Z,41.40
2017-08-30T01:20:03.944Z,47.33
2017-08-30T01:22:32.761Z,40.57
2017-08-30T01:25:01.126Z,38.60
2017-08-30T01:27:30.275Z,40.90
2017-08-30T01:29:58.965Z,38.33
2017-08-30T01:32:27.326Z,40.43
2017-08-30T01:34:55.682Z,47.77
2017-08-30T01:37:24.532Z,39.07
2017-08-30T01:39:52.954Z,51.37
2017-08-30T01:42:21.291Z,45.07
2017-08-30T01:44:50.425Z,39.90
2017-08-30T01:47:19.413Z,41.53
2017-08-30T01:49:48.539Z,43.70
2017-08-30T01:52:17.404Z,51.47
2017-08-30T01:54:45.747Z,43.50
2017-08-30T01:57:14.091Z,48.47
2017-08-30T01:59:42.779Z,47.93
2017-08-30T02:02:11.130Z,45.60
2017-08-30T02:04:39.481Z,48.77
2017-08-30T02:07:09.184Z,63.27
2017-08-30T02:09:37.549Z,47.93
2017-08-30T02:12:06.013Z,46.67
2017-08-30T02:14:34.891Z,45.57
2017-08-30T02:17:03.241Z,44.43
2017-08-30T02:19:31.607Z,43.80
2017-08-30T02:22:00.268Z,44.57
2017-08-30T02:24:28.633Z,44.37
2017-08-30T02:26:57.117Z,46.93
2017-08-30T02:29:26.633Z,44.13
2017-08-30T02:31:55.753Z,45.27
2017-08-30T02:34:24.892Z,43.60
2017-08-30T02:36:53.585Z,47.30
2017-08-30T02:39:21.962Z,38.57
2017-08-30T02:41:50.328Z,45.47
2017-08-30T02:44:20.542Z,46.63
2017-08-30T02:46:49.126Z,37.53
2017-08-30T02:49:17.469Z,51.33
2017-08-30T02:51:46.659Z,45.57
2017-08-30T02:54:15.027Z,51.00
2017-08-30T02:56:43.922Z,40.80
2017-08-30T02:59:12.949Z,44.83
2017-08-30T03:01:43.073Z,41.93
2017-08-30T03:04:12.209Z,44.03
2017-08-30T03:06:40.879Z,46.77
2017-08-30T03:09:10.088Z,43.77
2017-08-30T03:11:38.450Z,49.83
2017-08-30T03:14:07.087Z,40.47
2017-08-30T03:16:35.451Z,45.27
2017-08-30T03:19:03.798Z,36.60
2017-08-30T03:21:32.541Z,41.83
2017-08-30T03:24:01.627Z,43.57
2017-08-30T03:26:30.418Z,44.90
2017-08-30T03:28:59.042Z,45.70
2017-08-30T03:31:27.394Z,34.73
2017-08-30T03:33:56.182Z,43.03
2017-08-30T03:36:24.990Z,40.70
2017-08-30T03:38:53.675Z,39.17
2017-08-30T03:41:22.010Z,40.47
2017-08-30T03:43:52.726Z,38.50
2017-08-30T03:46:21.109Z,42.83
2017-08-30T03:48:49.466Z,38.93
2017-08-30T03:51:18.956Z,40.90
2017-08-30T03:53:47.321Z,40.33
2017-08-30T03:56:16.313Z,37.33
2017-08-30T03:58:45.126Z,42.70
2017-08-30T04:01:13.695Z,48.20
2017-08-30T04:03:42.055Z,48.70
2017-08-30T04:06:11.538Z,42.33
2017-08-30T04:08:40.765Z,48.63
2017-08-30T04:11:09.120Z,45.73
2017-08-30T04:13:38.227Z,47.97
2017-08-30T04:16:06.575Z,42.40
2017-08-30T04:18:35.519Z,44.17
2017-08-30T04:21:05.057Z,42.00
2017-08-30T04:23:33.552Z,47.33
2017-08-30T04:26:03.259Z,43.00
2017-08-30T04:28:32.056Z,46.47
2017-08-30T04:31:00.421Z,38.40
2017-08-30T04:33:28.779Z,44.33
2017-08-30T04:35:57.546Z,40.07
2017-08-30T04:38:26.409Z,39.83
2017-08-30T04:40:54.775Z,43.23
2017-08-30T04:43:23.404Z,35.07
2017-08-30T04:45:52.673Z,49.00
2017-08-30T04:48:21.036Z,45.27
2017-08-30T04:50:49.751Z,43.57
2017-08-30T04:53:18.945Z,44.60
2017-08-30T04:55:47.734Z,42.70
2017-08-30T04:58:16.442Z,44.47
2017-08-30T05:00:45.678Z,47.93
2017-08-30T05:03:14.847Z,49.60
2017-08-30T05:05:43.903Z,44.33
2017-08-30T05:08:12.254Z,54.90
2017-08-30T05:10:40.616Z,58.83
2017-08-30T05:13:10.361Z,45.23
2017-08-30T05:15:38.703Z,50.57
2017-08-30T05:18:07.052Z,37.87
2017-08-30T05:20:35.992Z,48.53
2017-08-30T05:23:04.358Z,39.10
2017-08-30T05:25:32.734Z,53.07
2017-08-30T05:28:02.424Z,38.63
2017-08-30T05:30:32.136Z,64.00
2017-08-30T05:33:02.898Z,40.43
2017-08-30T05:35:31.585Z,38.20
2017-08-30T05:38:00.986Z,43.90
2017-08-30T05:40:30.203Z,34.87
2017-08-30T05:42:58.559Z,34.43
2017-08-30T05:45:27.750Z,48.60
2017-08-30T05:47:57.522Z,37.63
2017-08-30T05:52:06.566Z,40.63
2017-08-30T05:54:35.407Z,42.03
2017-08-30T05:57:03.767Z,38.27
2017-08-30T05:59:32.131Z,37.47
2017-08-30T06:02:01.291Z,31.60
2017-08-30T06:04:29.900Z,27.73
2017-08-30T06:06:58.248Z,34.43
2017-08-30T06:09:26.893Z,34.03
2017-08-30T06:11:55.244Z,41.60
2017-08-30T06:14:24.383Z,31.40
2017-08-30T06:16:53.375Z,30.73
2017-08-30T06:19:25.337Z,33.10
2017-08-30T06:21:53.715Z,35.93
2017-08-30T06:24:23.151Z,29.67
2017-08-30T06:26:53.939Z,36.53
2017-08-30T06:29:23.186Z,30.93
2017-08-30T06:31:52.055Z,43.90
2017-08-30T06:34:20.414Z,33.67
2017-08-30T06:36:48.820Z,38.93
2017-08-30T06:39:17.725Z,36.47
2017-08-30T06:41:46.075Z,30.97
2017-08-30T06:44:14.445Z,31.83
2017-08-30T06:46:44.231Z,37.27
2017-08-30T06:49:12.568Z,33.30
2017-08-30T06:51:40.918Z,22.80
2017-08-30T06:54:09.556Z,22.93
2017-08-30T06:56:37.898Z,32.17
2017-08-30T06:59:06.280Z,27.70
2017-08-30T07:01:34.989Z,24.23
2017-08-30T07:04:03.781Z,25.90
2017-08-30T07:06:32.254Z,19.10
2017-08-30T07:09:00.953Z,17.37
2017-08-30T07:11:29.612Z,27.20
2017-08-30T07:13:58.944Z,18.13
2017-08-30T07:16:27.716Z,16.83
2017-08-30T07:18:56.093Z,17.80
2017-08-30T07:21:24.909Z,24.33
2017-08-30T07:23:53.931Z,15.77
2017-08-30T07:26:22.639Z,17.20
2017-08-30T07:28:51.011Z,18.00
2017-08-30T07:31:20.212Z,16.93
2017-08-30T07:33:48.579Z,16.10
2017-08-30T07:36:16.991Z,15.67
2017-08-30T07:38:45.662Z,16.90
2017-08-30T07:41:14.092Z,20.33
2017-08-30T07:43:43.233Z,18.87
2017-08-30T07:46:14.254Z,16.43
2017-08-30T07:48:42.652Z,16.63
2017-08-30T07:51:12.861Z,32.00
2017-08-30T07:53:42.448Z,17.13
2017-08-30T07:56:10.849Z,15.37
2017-08-30T07:58:39.427Z,20.83
2017-08-30T08:01:08.063Z,15.03
2017-08-30T08:03:37.059Z,23.70
2017-08-30T08:06:05.453Z,16.93
2017-08-30T08:08:34.241Z,16.80
2017-08-30T08:11:03.336Z,16.20
2017-08-30T08:13:31.800Z,19.57
2017-08-30T08:16:00.539Z,14.23
2017-08-30T08:18:28.913Z,20.00
2017-08-30T08:20:57.272Z,16.07
2017-08-30T08:23:26.044Z,15.67
2017-08-30T08:25:55.073Z,15.90
2017-08-30T08:28:23.434Z,20.87
2017-08-30T08:30:52.243Z,19.80
2017-08-30T08:33:20.604Z,22.73
2017-08-30T08:35:48.980Z,16.47
2017-08-30T08:38:17.631Z,17.60
2017-08-30T08:40:46.010Z,19.57
2017-08-30T08:43:14.414Z,25.93
2017-08-30T08:45:43.620Z,17.30
2017-08-30T08:48:12.760Z,12.63
2017-08-30T08:50:41.640Z,26.90
2017-08-30T08:53:10.497Z,15.00
2017-08-30T08:55:38.914Z,14.87
2017-08-30T08:58:08.177Z,22.87
2017-08-30T09:00:37.718Z,13.17
2017-08-30T09:03:06.872Z,13.63
2017-08-30T09:05:35.251Z,18.13
2017-08-30T09:08:03.942Z,15.73
2017-08-30T09:10:32.279Z,17.73
2017-08-30T09:13:00.669Z,20.00
2017-08-30T09:15:29.516Z,14.43
2017-08-30T09:17:57.881Z,26.93
2017-08-30T09:20:27.060Z,17.40
2017-08-30T09:22:55.783Z,24.27
2017-08-30T09:25:24.967Z,12.40
2017-08-30T09:27:54.109Z,14.17
2017-08-30T09:30:22.768Z,11.47
2017-08-30T09:32:51.156Z,17.57
2017-08-30T09:35:20.653Z,20.50
2017-08-30T09:37:49.685Z,12.73
2017-08-30T09:40:18.045Z,11.90
2017-08-30T09:42:48.015Z,13.93
2017-08-30T09:45:17.720Z,11.50
2017-08-30T09:47:46.104Z,10.63
2017-08-30T09:50:14.608Z,10.30
2017-08-30T09:52:43.909Z,19.33
2017-08-30T09:55:13.118Z,10.27
2017-08-30T09:57:42.109Z,10.77
2017-08-30T10:00:10.906Z,10.90
2017-08-30T10:02:39.286Z,10.10
2017-08-30T10:05:08.201Z,9.60
2017-08-30T10:07:37.860Z,10.77
2017-08-30T10:10:06.947Z,10.40
2017-08-30T10:12:35.309Z,14.50
2017-08-30T10:15:04.075Z,9.87
2017-08-30T10:17:32.631Z,9.60
2017-08-30T10:20:02.067Z,16.10
2017-08-30T10:22:31.162Z,13.20
2017-08-30T10:25:00.352Z,9.33
2017-08-30T10:27:29.523Z,10.33
2017-08-30T10:29:58.200Z,9.70
2017-08-30T10:32:26.589Z,19.50
2017-08-30T10:34:54.943Z,9.33
2017-08-30T10:37:23.689Z,10.67
2017-08-30T10:39:52.911Z,12.43
2017-08-30T10:42:21.294Z,8.87
2017-08-30T10:44:49.979Z,8.90
2017-08-30T10:47:18.317Z,11.47
2017-08-30T10:49:46.690Z,8.13
2017-08-30T10:52:15.885Z,8.90
2017-08-30T10:54:44.292Z,11.57
2017-08-30T10:57:12.647Z,11.20
2017-08-30T10:59:41.442Z,13.70
2017-08-30T11:02:09.908Z,8.70
2017-08-30T11:04:38.410Z,8.93
2017-08-30T11:07:07.279Z,18.63
2017-08-30T11:09:35.634Z,8.77
2017-08-30T11:12:04.581Z,9.37
2017-08-30T11:14:33.295Z,8.23
2017-08-30T11:17:01.634Z,7.70
2017-08-30T11:19:30.046Z,8.70
2017-08-30T11:21:58.838Z,12.83
2017-08-30T11:24:28.880Z,9.23
2017-08-30T11:26:57.362Z,8.30
2017-08-30T11:29:27.081Z,7.47
2017-08-30T11:31:55.473Z,10.60
2017-08-30T11:34:23.826Z,9.57
2017-08-30T11:36:52.680Z,8.03
2017-08-30T11:39:21.032Z,10.80
2017-08-30T11:41:49.388Z,9.83
2017-08-30T11:44:18.633Z,7.80
2017-08-30T11:46:47.651Z,8.60
2017-08-30T11:49:16.843Z,8.43
2017-08-30T11:51:45.647Z,10.57
2017-08-30T11:54:14.001Z,8.70
2017-08-30T11:56:43.342Z,9.93
2017-08-30T11:59:12.204Z,14.93
2017-08-30T12:01:40.533Z,9.33
2017-08-30T12:04:08.903Z,12.07
2017-08-30T12:06:37.560Z,17.47
2017-08-30T12:09:07.580Z,9.77
2017-08-30T12:11:37.364Z,10.60
2017-08-30T12:14:06.136Z,10.00
2017-08-30T12:16:34.543Z,10.47
2017-08-30T12:19:03.247Z,10.10
2017-08-30T12:21:32.424Z,10.53
2017-08-30T12:24:00.993Z,9.90
2017-08-30T12:26:30.927Z,10.83
2017-08-30T12:29:01.556Z,10.57
2017-08-30T12:31:29.898Z,10.30
2017-08-30T12:33:58.863Z,11.00
2017-08-30T12:36:27.630Z,18.20
2017-08-30T12:39:01.463Z,15.00
2017-08-30T12:41:30.186Z,17.63
2017-08-30T12:44:00.273Z,11.30
2017-08-30T12:46:28.684Z,22.17
2017-08-30T12:48:58.439Z,12.97
2017-08-30T12:51:28.252Z,14.33
2017-08-30T12:53:56.647Z,11.77
2017-08-30T12:56:25.520Z,14.60
2017-08-30T12:58:54.618Z,14.27
2017-08-30T13:01:24.504Z,13.83
2017-08-30T13:03:53.697Z,17.43
2017-08-30T13:06:22.675Z,17.63
2017-08-30T13:08:51.898Z,16.43
2017-08-30T13:11:21.559Z,11.70
2017-08-30T13:13:52.076Z,21.60
2017-08-30T13:16:21.590Z,13.50
2017-08-30T13:18:52.189Z,17.20
2017-08-30T13:21:21.356Z,11.03
2017-08-30T13:23:50.579Z,10.10
2017-08-30T13:26:19.594Z,11.20
2017-08-30T13:29:09.370Z,15.60
2017-08-30T13:31:42.801Z,18.10
2017-08-30T13:34:12.206Z,13.87
2017-08-30T13:36:40.907Z,15.50
2017-08-30T13:39:10.606Z,16.23
2017-08-30T13:41:39.160Z,25.63
2017-08-30T13:44:08.052Z,16.10
2017-08-30T13:46:37.787Z,15.30
2017-08-30T13:49:06.442Z,13.03
2017-08-30T13:51:35.737Z,10.83
2017-08-30T13:54:06.092Z,11.23
2017-08-30T13:56:35.952Z,11.90
2017-08-30T13:59:05.676Z,19.03
2017-08-30T14:01:35.945Z,16.00
2017-08-30T14:04:05.473Z,19.87
2017-08-30T14:06:36.150Z,24.93
2017-08-30T14:09:09.980Z,20.60
2017-08-30T14:11:39.517Z,17.37
2017-08-30T14:14:08.857Z,13.13
2017-08-30T14:16:38.551Z,18.90
2017-08-30T14:19:07.769Z,25.73
2017-08-30T14:21:36.185Z,38.50
2017-08-30T14:24:05.691Z,16.40
2017-08-30T14:26:34.117Z,23.60
2017-08-30T14:29:03.249Z,23.50
2017-08-30T14:31:31.934Z,15.00
2017-08-30T14:34:00.297Z,21.70
2017-08-30T14:36:29.022Z,22.10
2017-08-30T14:38:57.855Z,15.53
2017-08-30T14:41:27.031Z,24.03
2017-08-30T14:43:55.414Z,12.77
2017-08-30T14:46:24.254Z,24.90
2017-08-30T14:48:52.747Z,19.60
2017-08-30T14:51:21.181Z,16.10
2017-08-30T14:53:49.905Z,30.97
2017-08-30T14:56:18.274Z,18.93
2017-08-30T14:58:46.642Z,18.63
2017-08-30T15:01:15.558Z,17.20
2017-08-30T15:03:45.365Z,15.93
2017-08-30T15:06:14.645Z,22.20
2017-08-30T15:08:44.437Z,17.00
2017-08-30T15:11:12.804Z,22.80
2017-08-30T15:13:41.180Z,18.37
2017-08-30T15:16:10.336Z,18.23
2017-08-30T15:18:38.775Z,20.17
2017-08-30T15:21:09.325Z,33.13
2017-08-30T15:23:38.470Z,20.40
2017-08-30T15:26:06.826Z,13.80
2017-08-30T15:28:35.724Z,27.73
2017-08-30T15:31:05.312Z,31.03
2017-08-30T15:33:33.732Z,15.37
2017-08-30T15:36:02.105Z,21.57
2017-08-30T15:38:30.996Z,27.40
2017-08-30T15:41:01.640Z,18.93
2017-08-30T15:43:30.581Z,20.10
2017-08-30T15:45:59.329Z,13.40
2017-08-30T15:48:27.764Z,13.80
2017-08-30T15:50:56.118Z,15.30
2017-08-30T15:53:25.474Z,23.83
2017-08-30T15:55:53.892Z,16.33
2017-08-30T15:58:22.332Z,18.67
2017-08-30T16:00:51.397Z,28.73
2017-08-30T16:03:20.747Z,22.93
2017-08-30T16:05:49.951Z,19.13
2017-08-30T16:08:19.384Z,24.83
2017-08-30T16:10:48.422Z,19.83
2017-08-30T16:13:18.761Z,30.47
2017-08-30T16:15:48.148Z,20.47
2017-08-30T16:18:16.898Z,20.97
2017-08-30T16:20:46.078Z,18.10
2017-08-30T16:23:16.977Z,20.40
2017-08-30T16:25:45.432Z,24.03
2017-08-30T16:28:14.514Z,18.30
2017-08-30T16:30:43.384Z,13.83
2017-08-30T16:33:12.873Z,17.33
2017-08-30T16:35:43.724Z,21.03
2017-08-30T16:38:13.007Z,31.23
2017-08-30T16:40:42.482Z,19.37
2017-08-30T16:43:11.949Z,21.90
2017-08-30T16:45:41.271Z,26.83
2017-08-30T16:48:10.567Z,26.03
2017-08-30T16:50:41.562Z,26.90
2017-08-30T16:53:11.392Z,18.67
2017-08-30T16:55:40.486Z,34.17
2017-08-30T16:58:10.416Z,20.20
2017-08-30T17:00:40.119Z,32.37
2017-08-30T17:03:09.328Z,20.60
2017-08-30T17:05:39.550Z,31.57
2017-08-30T17:08:08.315Z,22.93
2017-08-30T17:10:36.939Z,35.13
2017-08-30T17:13:06.028Z,21.00
2017-08-30T17:15:37.286Z,39.10
2017-08-30T17:18:06.491Z,23.80
2017-08-30T17:20:35.144Z,32.47
2017-08-30T17:23:04.902Z,37.10
2017-08-30T17:25:34.083Z,24.07
2017-08-30T17:28:03.703Z,26.03
2017-08-30T17:30:32.591Z,23.90
2017-08-30T17:33:00.986Z,28.47
2017-08-30T17:35:30.367Z,24.57
2017-08-30T17:38:00.087Z,28.03
2017-08-30T17:40:29.565Z,30.93
2017-08-30T17:42:57.972Z,33.17
2017-08-30T17:45:26.674Z,22.00
2017-08-30T17:47:55.094Z,34.10
2017-08-30T17:50:23.494Z,27.70
2017-08-30T17:52:53.030Z,50.20
2017-08-30T17:55:22.142Z,33.57
2017-08-30T17:57:51.333Z,38.53
2017-08-30T18:00:20.309Z,29.67
2017-08-30T18:02:49.189Z,31.63
2017-08-30T18:05:18.707Z,27.40
2017-08-30T18:07:48.245Z,39.60
2017-08-30T18:10:18.235Z,30.30
2017-08-30T18:12:46.962Z,45.33
2017-08-30T18:15:16.178Z,30.97
2017-08-30T18:17:45.312Z,46.37
2017-08-30T18:20:14.031Z,34.80
2017-08-30T18:22:44.596Z,26.90
2017-08-30T18:25:13.517Z,32.70
2017-08-30T18:27:42.107Z,29.90
2017-08-30T18:30:13.167Z,38.50
2017-08-30T18:32:41.858Z,27.63
2017-08-30T18:35:11.635Z,47.50
2017-08-30T18:37:40.483Z,39.60
2017-08-30T18:40:09.054Z,43.17
2017-08-30T18:42:37.873Z,43.90
2017-08-30T18:45:07.114Z,32.13
2017-08-30T18:47:35.650Z,48.30
2017-08-30T18:50:04.671Z,36.77
2017-08-30T18:52:35.653Z,37.23
2017-08-30T18:55:05.422Z,39.67
2017-08-30T18:57:34.198Z,40.00
2017-08-30T19:00:04.376Z,44.00
2017-08-30T19:02:33.905Z,57.63
2017-08-30T19:05:03.391Z,30.73
2017-08-30T19:07:32.736Z,35.30
2017-08-30T19:10:01.239Z,37.87
2017-08-30T19:12:29.894Z,62.63
2017-08-30T19:14:59.309Z,34.20
2017-08-30T19:17:28.247Z,42.53
2017-08-30T19:19:56.759Z,43.23
2017-08-30T19:22:26.175Z,32.13
2017-08-30T19:24:59.077Z,41.63
2017-08-30T19:27:29.474Z,57.37
2017-08-30T19:29:58.378Z,33.13
2017-08-30T19:32:27.565Z,40.83
2017-08-30T19:34:56.748Z,36.43
2017-08-30T19:37:25.598Z,38.00
2017-08-30T19:39:55.114Z,34.40
2017-08-30T19:42:25.653Z,42.13
2017-08-30T19:44:54.263Z,27.57
2017-08-30T19:47:22.787Z,32.53
2017-08-30T19:49:51.639Z,41.10
2017-08-30T19:52:20.320Z,30.67
2017-08-30T19:54:49.509Z,28.47
2017-08-30T19:57:18.502Z,42.00
2017-08-30T19:59:46.988Z,35.60
2017-08-30T20:02:15.810Z,32.13
2017-08-30T20:04:45.742Z,35.10
2017-08-30T20:07:15.686Z,35.60
2017-08-30T20:09:44.081Z,32.93
2017-08-30T20:12:13.398Z,41.90
2017-08-30T20:14:41.749Z,41.90
2017-08-30T20:17:10.330Z,36.90
2017-08-30T20:19:39.005Z,39.47
2017-08-30T20:22:08.274Z,37.83
2017-08-30T20:24:36.690Z,39.77
2017-08-30T20:27:05.584Z,34.83
2017-08-30T20:29:34.725Z,41.13
2017-08-30T20:32:03.085Z,42.33
2017-08-30T20:34:31.833Z,42.27
2017-08-30T20:37:00.232Z,43.10
2017-08-30T20:39:29.201Z,37.47
2017-08-30T20:41:58.009Z,40.73
2017-08-30T20:44:26.386Z,36.53
2017-08-30T20:46:57.782Z,46.13
2017-08-30T20:49:26.647Z,39.03
2017-08-30T20:51:54.992Z,35.03
2017-08-30T20:54:23.343Z,40.97
2017-08-30T20:56:52.777Z,42.20
2017-08-30T20:59:22.029Z,43.23
2017-08-30T21:01:51.511Z,44.13
2017-08-30T21:04:20.163Z,50.67
2017-08-30T21:06:49.320Z,43.23
2017-08-30T21:09:18.552Z,42.60
2017-08-30T21:11:47.305Z,40.40
2017-08-30T21:14:15.666Z,37.43
2017-08-30T21:16:44.015Z,51.07
2017-08-30T21:19:12.871Z,40.63
2017-08-30T21:21:41.240Z,43.00
2017-08-30T21:24:09.656Z,39.90
2017-08-30T21:26:38.287Z,39.43
2017-08-30T21:29:06.639Z,48.43
2017-08-30T21:31:35.043Z,39.13
2017-08-30T21:34:03.767Z,38.03
2017-08-30T21:36:32.169Z,39.73
2017-08-30T21:39:00.888Z,46.00
2017-08-30T21:41:29.661Z,49.10
2017-08-30T21:43:58.042Z,50.30
2017-08-30T21:46:26.465Z,50.50
2017-08-30T21:48:56.179Z,57.20
2017-08-30T21:51:24.621Z,57.70
2017-08-30T21:53:53.039Z,55.13
2017-08-30T21:56:22.035Z,54.23
2017-08-30T21:58:50.390Z,59.50
2017-08-30T22:01:18.781Z,58.50
2017-08-30T22:03:48.008Z,50.10
2017-08-30T22:06:16.418Z,53.10
2017-08-30T22:08:44.804Z,58.80
2017-08-30T22:11:13.681Z,63.97
2017-08-30T22:13:42.073Z,63.60
2017-08-30T22:16:11.833Z,59.83
2017-08-30T22:18:40.571Z,59.20
2017-08-30T22:21:08.982Z,59.10
2017-08-30T22:23:37.610Z,67.83
2017-08-30T22:26:07.040Z,64.43
2017-08-30T22:28:36.481Z,67.30
2017-08-30T22:31:04.853Z,60.63
2017-08-30T22:33:33.747Z,57.03
2017-08-30T22:36:02.124Z,58.73
2017-08-30T22:38:30.719Z,66.17
2017-08-30T22:40:59.571Z,68.47
2017-08-30T22:43:27.940Z,61.97
2017-08-30T22:45:56.324Z,66.73
2017-08-30T22:48:25.290Z,60.50
2017-08-30T22:50:53.650Z,67.40
2017-08-30T22:53:22.026Z,69.00
2017-08-30T22:55:50.696Z,71.93
2017-08-30T22:58:19.040Z,70.83
2017-08-30T23:00:47.416Z,65.40
2017-08-30T23:03:16.325Z,77.73
2017-08-30T23:05:44.757Z,67.60
2017-08-30T23:08:13.150Z,69.53
2017-08-30T23:10:41.957Z,68.47
2017-08-30T23:13:10.321Z,74.87
2017-08-30T23:15:38.679Z,73.23
2017-08-30T23:18:07.849Z,69.60
2017-08-30T23:20:36.210Z,69.90
2017-08-30T23:23:04.594Z,77.93
2017-08-30T23:25:33.447Z,86.20
2017-08-30T23:28:03.272Z,75.50
2017-08-30T23:30:33.116Z,72.60
2017-08-30T23:33:02.343Z,65.03
2017-08-30T23:35:31.627Z,66.60
2017-08-30T23:37:59.993Z,72.57
2017-08-30T23:40:28.913Z,72.97
2017-08-30T23:42:57.288Z,75.83
2017-08-30T23:45:25.673Z,83.73
2017-08-30T23:47:54.739Z,77.97
2017-08-30T23:50:23.184Z,74.73
2017-08-30T23:52:51.576Z,78.50
2017-08-30T23:55:20.584Z,72.33
2017-08-30T23:57:48.949Z,72.83
